SALMON FALLS @ MILTON: From 06/04/2019 02:00 to 06/18/2019 18:00

Date STAGE [FT] FLOW [CFS] LAKE ELEVATION [FT] PRECIPITATION INCREMENT [IN] AIR TEMPERATURE [DEGF]
06/18/2019 13:00 -- -- -- 0.00 --
06/18/2019 12:00 3.08 -- 413.51 0.00 68.1
06/18/2019 11:00 3.08 101.5 413.50 0.00 67.8
06/18/2019 10:00 3.07 99.3 413.51 0.00 65.7
06/18/2019 09:00 3.08 101.5 413.51 0.00 63.4
06/18/2019 08:00 3.08 101.5 413.50 0.00 59.9
06/18/2019 07:00 3.08 101.5 413.50 0.00 57.4
06/18/2019 06:00 3.07 99.3 413.50 0.00 56.0
06/18/2019 05:00 3.08 101.5 413.51 0.00 56.5
06/18/2019 04:00 3.08 101.5 413.51 0.00 56.6
06/18/2019 03:00 3.07 99.3 413.49 0.00 57.9
06/18/2019 02:00 3.07 99.3 413.50 0.00 59.2
06/18/2019 01:00 3.07 99.3 413.49 0.00 59.7
06/18/2019 00:00 3.07 99.3 413.49 0.00 61.3
06/17/2019 23:00 3.07 99.3 413.49 0.00 63.2
06/17/2019 22:00 3.07 99.3 413.48 0.00 65.7
06/17/2019 21:00 3.07 99.3 413.48 0.00 68.8
06/17/2019 20:00 3.07 99.3 413.48 0.00 72.5
06/17/2019 19:00 3.07 99.3 413.48 0.00 76.9
06/17/2019 18:00 3.06 97.2 413.48 0.00 77.3
06/17/2019 17:00 3.07 99.3 413.47 0.00 77.1
06/17/2019 16:00 3.07 99.3 413.47 0.00 76.1
06/17/2019 15:00 3.08 101.5 413.48 0.00 75.1
06/17/2019 14:00 3.08 101.5 413.48 0.00 73.1
06/17/2019 13:00 3.37 180.0 413.47 0.00 71.4
06/17/2019 12:00 3.38 183.3 413.47 0.00 69.3
06/17/2019 11:00 3.38 183.3 413.50 0.00 66.5
06/17/2019 10:00 3.38 183.3 413.50 0.00 64.9
06/17/2019 09:00 3.38 183.3 413.50 0.00 63.0
06/17/2019 08:00 3.38 183.3 413.51 0.00 61.7
06/17/2019 07:00 3.38 183.3 413.51 0.00 60.0
06/17/2019 06:00 3.39 186.6 413.51 0.00 60.6
06/17/2019 05:00 3.39 186.6 413.51 0.00 60.3
06/17/2019 04:00 3.39 186.6 413.52 0.00 61.3
06/17/2019 03:00 3.39 186.6 413.52 0.00 62.5
06/17/2019 02:00 3.39 186.6 413.52 0.00 63.1
06/17/2019 01:00 3.39 186.6 413.53 0.00 64.3
06/17/2019 00:00 3.39 186.6 413.52 0.00 64.5
06/16/2019 23:00 3.39 186.6 413.53 0.00 64.7
06/16/2019 22:00 3.39 186.6 413.52 0.00 65.1
06/16/2019 21:00 3.39 186.6 413.53 0.00 65.4
06/16/2019 20:00 3.39 186.6 413.53 0.00 65.8
06/16/2019 19:00 3.39 186.6 413.53 0.00 66.2
06/16/2019 18:00 3.39 186.6 413.54 0.00 66.3
06/16/2019 17:00 3.39 186.6 413.54 0.00 66.5
06/16/2019 16:00 3.39 186.6 413.53 0.00 66.0
06/16/2019 15:00 3.40 190.0 413.53 0.00 66.0
06/16/2019 14:00 3.39 186.6 413.53 0.00 66.4
06/16/2019 13:00 3.39 186.6 413.54 0.00 68.1
06/16/2019 12:00 3.40 190.0 413.54 0.00 68.9
06/16/2019 11:00 3.39 186.6 413.53 0.00 68.5
06/16/2019 10:00 3.40 190.0 413.53 0.00 67.0
06/16/2019 09:00 3.40 190.0 413.53 0.00 66.0
06/16/2019 08:00 3.40 190.0 413.54 0.00 65.0
06/16/2019 07:00 3.40 190.0 413.53 0.00 65.3
06/16/2019 06:00 3.40 190.0 413.54 0.00 66.3
06/16/2019 05:00 3.41 193.4 413.54 0.00 66.5
06/16/2019 04:00 3.40 190.0 413.54 0.00 69.0
06/16/2019 03:00 3.40 190.0 413.55 0.00 65.9
06/16/2019 02:00 3.40 190.0 413.56 0.00 65.6
06/16/2019 01:00 3.40 190.0 413.56 0.00 66.0
06/16/2019 00:00 3.40 190.0 413.55 0.00 68.1
06/15/2019 23:00 3.41 193.4 413.56 0.00 68.9
06/15/2019 22:00 3.41 193.4 413.56 0.00 70.2
06/15/2019 21:00 3.41 193.4 413.56 0.00 72.5
06/15/2019 20:00 3.41 193.4 413.57 0.00 75.4
06/15/2019 19:00 3.40 190.0 413.54 0.00 77.5
06/15/2019 18:00 3.41 193.4 413.56 0.00 78.1
06/15/2019 17:00 3.41 193.4 413.58 0.00 78.1
06/15/2019 16:00 3.40 190.0 413.58 0.00 77.8
06/15/2019 15:00 3.41 193.4 413.56 0.00 75.4
06/15/2019 14:00 3.41 193.4 413.58 0.00 72.8
06/15/2019 13:00 3.41 193.4 413.58 0.00 73.0
06/15/2019 12:00 3.42 196.9 413.61 0.00 71.0
06/15/2019 11:00 3.42 196.9 413.60 0.00 68.3
06/15/2019 10:00 3.43 200.3 413.60 0.00 63.0
06/15/2019 09:00 3.42 196.9 413.61 0.00 61.6
06/15/2019 08:00 3.42 196.9 413.59 0.00 58.1
06/15/2019 07:00 3.42 196.9 413.60 0.00 56.8
06/15/2019 06:00 3.42 196.9 413.61 0.00 51.5
06/15/2019 05:00 3.42 196.9 413.61 0.00 53.3
06/15/2019 04:00 3.43 200.3 413.60 0.00 52.6
06/15/2019 03:00 3.42 196.9 413.62 0.00 53.3
06/15/2019 02:00 3.43 200.3 413.60 0.00 55.3
06/15/2019 01:00 3.42 196.9 413.61 0.00 55.1
06/15/2019 00:00 3.43 200.3 413.62 0.00 56.4
06/14/2019 23:00 3.42 196.9 413.62 0.00 57.8
06/14/2019 22:00 3.42 196.9 413.62 0.00 59.1
06/14/2019 21:00 3.43 200.3 413.61 0.00 61.5
06/14/2019 20:00 3.42 196.9 413.60 0.00 63.6
06/14/2019 19:00 3.42 196.9 413.60 0.00 64.6
06/14/2019 18:00 3.42 196.9 413.62 0.00 63.5
06/14/2019 17:00 3.43 200.3 413.61 0.00 68.2
06/14/2019 16:00 3.42 196.9 413.63 0.00 68.4
06/14/2019 15:00 3.42 196.9 413.59 0.00 68.8
06/14/2019 14:00 3.42 196.9 413.61 0.00 66.8
06/14/2019 13:00 3.42 196.9 413.63 0.00 65.1
06/14/2019 12:00 3.57 253.5 413.63 0.00 62.2
06/14/2019 11:00 3.58 257.6 413.61 0.00 59.1
06/14/2019 10:00 3.58 257.6 413.63 0.00 55.8
06/14/2019 09:00 3.57 253.5 413.62 0.00 53.2
06/14/2019 08:00 3.57 253.5 413.62 0.00 52.3
06/14/2019 07:00 3.57 253.5 413.62 0.00 50.7
06/14/2019 06:00 3.57 253.5 413.62 0.00 50.9
06/14/2019 05:00 3.57 253.5 413.62 0.00 50.5
06/14/2019 04:00 3.57 253.5 413.63 0.00 49.8
06/14/2019 03:00 3.58 257.6 413.64 0.00 48.8
06/14/2019 02:00 3.57 253.5 413.63 0.00 48.4
06/14/2019 01:00 3.57 253.5 413.62 0.00 49.6
06/14/2019 00:00 3.57 253.5 413.64 0.00 50.4
06/13/2019 23:00 3.57 253.5 413.63 0.00 51.1
06/13/2019 22:00 3.57 253.5 413.63 0.00 51.1
06/13/2019 21:00 3.57 253.5 413.65 0.00 51.6
06/13/2019 20:00 3.58 257.6 413.65 0.00 51.7
06/13/2019 19:00 3.58 257.6 413.66 0.00 52.1
06/13/2019 18:00 3.58 257.6 413.65 0.00 51.1
06/13/2019 17:00 3.58 257.6 413.66 0.00 50.8
06/13/2019 16:00 3.58 257.6 413.64 0.00 50.5
06/13/2019 15:00 3.58 257.6 413.63 0.00 49.8
06/13/2019 14:00 3.57 253.5 413.62 0.00 50.8
06/13/2019 13:00 3.57 253.5 413.61 0.00 55.8
06/13/2019 12:00 3.77 335.7 413.62 0.00 57.3
06/13/2019 11:00 3.79 344.5 413.44 0.00 54.5
06/13/2019 10:00 3.79 344.5 413.62 0.00 55.2
06/13/2019 09:00 3.79 344.5 413.62 0.00 55.0
06/13/2019 08:00 3.79 344.5 413.63 0.00 54.8
06/13/2019 07:00 3.79 344.5 413.63 0.00 53.6
06/13/2019 06:00 3.79 344.5 413.64 0.00 54.4
06/13/2019 05:00 3.80 349.0 413.65 0.00 53.5
06/13/2019 04:00 3.80 349.0 413.66 0.00 53.6
06/13/2019 03:00 3.80 349.0 413.67 0.00 54.3
06/13/2019 02:00 3.80 349.0 413.67 0.00 54.9
06/13/2019 01:00 3.80 349.0 413.67 0.00 55.6
06/13/2019 00:00 3.80 349.0 413.67 0.00 58.5
06/12/2019 23:00 3.80 349.0 413.68 0.00 58.9
06/12/2019 22:00 3.81 353.5 413.69 0.00 61.6
06/12/2019 21:00 3.80 349.0 413.70 0.00 65.5
06/12/2019 20:00 3.80 349.0 413.69 0.00 69.0
06/12/2019 19:00 3.81 353.5 413.69 0.00 71.7
06/12/2019 18:00 3.80 349.0 413.70 0.00 74.5
06/12/2019 17:00 3.81 353.5 413.70 0.00 74.8
06/12/2019 16:00 3.81 353.5 413.71 0.00 73.6
06/12/2019 15:00 3.81 353.5 413.71 0.00 72.7
06/12/2019 14:00 3.82 358.1 413.72 0.00 71.5
06/12/2019 13:00 3.82 358.1 413.73 0.00 69.6
06/12/2019 12:00 3.82 358.1 413.75 0.00 67.0
06/12/2019 11:00 3.82 358.1 413.75 0.00 65.0
06/12/2019 10:00 3.81 353.5 413.75 0.00 64.1
06/12/2019 09:00 3.82 358.1 413.76 0.00 63.3
06/12/2019 08:00 3.82 358.1 413.76 0.00 57.3
06/12/2019 07:00 3.82 358.1 413.77 0.00 54.0
06/12/2019 06:00 3.82 358.1 413.76 0.00 51.8
06/12/2019 05:00 3.83 362.7 413.76 0.00 52.0
06/12/2019 04:00 3.82 358.1 413.77 0.00 51.3
06/12/2019 03:00 3.83 362.7 413.78 0.00 51.6
06/12/2019 02:00 3.82 358.1 413.77 0.00 53.1
06/12/2019 01:00 3.82 358.1 413.78 0.00 54.9
06/12/2019 00:00 3.83 362.7 413.79 0.00 59.2
06/11/2019 23:00 3.82 358.1 413.78 0.00 61.8
06/11/2019 22:00 3.83 362.7 413.81 0.00 62.7
06/11/2019 21:00 3.83 362.7 413.80 0.00 63.9
06/11/2019 20:00 3.84 367.3 413.79 0.00 65.0
06/11/2019 19:00 3.83 362.7 413.86 0.00 67.0
06/11/2019 18:00 3.83 362.7 413.81 0.00 70.5
06/11/2019 17:00 3.84 367.3 413.82 0.00 70.5
06/11/2019 16:00 3.82 358.1 413.78 0.00 68.9
06/11/2019 15:00 3.83 362.7 413.80 0.00 69.2
06/11/2019 14:00 3.83 362.7 413.81 0.00 67.8
06/11/2019 13:00 3.83 362.7 413.83 0.00 67.6
06/11/2019 12:00 3.84 367.3 413.83 0.00 64.9
06/11/2019 11:00 3.84 367.3 413.83 0.00 63.7
06/11/2019 10:00 3.83 362.7 413.84 0.00 62.3
06/11/2019 09:00 3.83 362.7 413.82 0.00 61.5
06/11/2019 08:00 3.83 362.7 413.81 0.00 61.5
06/11/2019 07:00 3.82 358.1 413.81 0.00 61.9
06/11/2019 06:00 3.83 362.7 413.83 0.00 61.7
06/11/2019 05:00 3.84 367.3 413.82 0.00 61.0
06/11/2019 04:00 3.83 362.7 413.85 0.00 59.9
06/11/2019 03:00 3.83 362.7 413.82 0.00 59.9
06/11/2019 02:00 3.83 362.7 413.84 0.00 60.6
06/11/2019 01:00 3.83 362.7 413.85 0.00 61.3
06/11/2019 00:00 3.85 372.0 413.87 0.00 62.7
06/10/2019 23:00 3.84 367.3 413.87 0.00 62.8
06/10/2019 22:00 3.85 372.0 413.88 0.00 63.7
06/10/2019 21:00 3.85 372.0 413.89 0.00 66.1
06/10/2019 20:00 3.86 376.7 413.91 0.00 68.9
06/10/2019 19:00 3.86 376.7 413.90 0.00 70.2
06/10/2019 18:00 3.86 376.7 413.93 0.00 76.4
06/10/2019 17:00 3.87 381.5 413.94 0.00 78.8
06/10/2019 16:00 3.88 386.3 413.96 0.00 76.8
06/10/2019 15:00 3.89 391.1 413.97 0.00 77.0
06/10/2019 14:00 3.90 396.0 413.98 0.00 77.0
06/10/2019 13:00 3.90 396.0 414.00 0.00 76.0
06/10/2019 12:00 3.90 396.0 414.01 0.00 74.5
06/10/2019 11:00 3.37 180.0 413.74 0.00 71.5
06/10/2019 10:00 3.38 183.3 414.03 0.00 67.2
06/10/2019 09:00 3.38 183.3 414.04 0.00 63.4
06/10/2019 08:00 3.39 186.6 414.05 0.00 57.2
06/10/2019 07:00 3.39 186.6 414.05 0.00 54.3
06/10/2019 06:00 3.39 186.6 414.05 0.00 53.5
06/10/2019 05:00 3.39 186.6 414.05 0.00 55.3
06/10/2019 04:00 3.39 186.6 414.05 0.00 56.4
06/10/2019 03:00 3.39 186.6 414.05 0.00 57.0
06/10/2019 02:00 3.40 190.0 414.06 0.00 58.8
06/10/2019 01:00 3.40 190.0 414.05 0.00 59.9
06/10/2019 00:00 3.40 190.0 414.05 0.00 61.1
06/09/2019 23:00 3.40 190.0 414.05 0.00 62.3
06/09/2019 22:00 3.39 186.6 414.05 0.00 64.8
06/09/2019 21:00 3.40 190.0 414.05 0.00 70.0
06/09/2019 20:00 3.40 190.0 414.05 0.00 73.5
06/09/2019 19:00 3.39 186.6 414.06 0.00 76.7
06/09/2019 18:00 3.40 190.0 414.06 0.00 78.8
06/09/2019 17:00 3.40 190.0 414.06 0.00 78.4
06/09/2019 16:00 3.41 193.4 414.07 0.00 77.5
06/09/2019 15:00 3.41 193.4 414.06 0.00 76.4
06/09/2019 14:00 3.41 193.4 414.06 0.00 75.5
06/09/2019 13:00 3.41 193.4 414.07 0.00 73.2
06/09/2019 12:00 3.41 193.4 414.08 0.00 70.8
06/09/2019 11:00 3.42 196.9 414.08 0.00 67.7
06/09/2019 10:00 3.42 196.9 414.08 0.00 63.8
06/09/2019 09:00 3.43 200.3 414.08 0.00 59.8
06/09/2019 08:00 3.41 193.4 414.07 0.00 54.1
06/09/2019 07:00 3.43 200.3 414.08 0.00 52.0
06/09/2019 06:00 3.42 196.9 414.08 0.00 51.9
06/09/2019 05:00 3.42 196.9 414.08 0.00 52.3
06/09/2019 04:00 3.42 196.9 414.09 0.00 53.9
06/09/2019 03:00 3.43 200.3 414.08 0.00 54.0
06/09/2019 02:00 3.42 196.9 414.08 0.00 53.8
06/09/2019 01:00 3.43 200.3 414.09 0.00 55.5
06/09/2019 00:00 3.43 200.3 414.08 0.00 56.0
06/08/2019 23:00 3.42 196.9 414.08 0.00 58.5
06/08/2019 22:00 3.42 196.9 414.08 0.00 62.1
06/08/2019 21:00 3.41 193.4 414.08 0.00 67.5
06/08/2019 20:00 3.41 193.4 414.07 0.00 71.9
06/08/2019 19:00 3.41 193.4 414.07 0.00 74.4
06/08/2019 18:00 3.41 193.4 414.07 0.00 77.8
06/08/2019 17:00 3.43 200.3 414.07 0.00 76.7
06/08/2019 16:00 3.42 196.9 414.08 0.00 75.7
06/08/2019 15:00 3.41 193.4 414.07 0.00 74.4
06/08/2019 14:00 3.41 193.4 414.07 0.00 72.8
06/08/2019 13:00 3.41 193.4 414.07 0.00 71.4
06/08/2019 12:00 3.43 200.3 414.08 0.00 69.1
06/08/2019 11:00 3.43 200.3 414.08 0.00 67.1
06/08/2019 10:00 3.41 193.4 414.08 0.00 65.8
06/08/2019 09:00 3.41 193.4 414.07 0.00 62.1
06/08/2019 08:00 3.40 190.0 414.06 0.00 57.3
06/08/2019 07:00 3.40 190.0 414.07 0.00 52.2
06/08/2019 06:00 3.40 190.0 414.06 0.00 51.8
06/08/2019 05:00 3.40 190.0 414.07 0.00 53.2
06/08/2019 04:00 3.39 186.6 414.06 0.00 54.6
06/08/2019 03:00 3.39 186.6 414.06 0.00 55.9
06/08/2019 02:00 3.39 186.6 414.06 0.00 57.8
06/08/2019 01:00 3.38 183.3 414.05 0.00 59.5
06/08/2019 00:00 3.38 183.3 414.05 0.00 61.0
06/07/2019 23:00 3.38 183.3 414.05 0.00 63.1
06/07/2019 22:00 3.36 176.7 414.04 0.00 65.8
06/07/2019 21:00 3.36 176.7 414.03 0.00 68.4
06/07/2019 20:00 3.35 173.5 414.01 0.00 71.9
06/07/2019 19:00 3.36 176.7 414.03 0.00 78.4
06/07/2019 18:00 3.36 176.7 414.03 0.00 78.9
06/07/2019 17:00 3.34 170.3 414.02 0.00 78.4
06/07/2019 16:00 3.34 170.3 414.01 0.00 77.2
06/07/2019 15:00 3.34 170.3 414.01 0.00 75.5
06/07/2019 14:00 3.33 167.2 414.00 0.00 74.1
06/07/2019 13:00 3.32 164.1 414.00 0.00 72.4
06/07/2019 12:00 3.32 164.1 414.00 0.00 69.8
06/07/2019 11:00 3.32 164.1 413.99 0.00 66.8
06/07/2019 10:00 3.31 161.0 413.98 0.00 65.3
06/07/2019 09:00 3.31 161.0 413.98 0.00 58.5
06/07/2019 08:00 3.30 158.0 413.97 0.00 53.9
06/07/2019 07:00 3.30 158.0 413.96 0.00 50.5
06/07/2019 06:00 3.29 155.0 413.96 0.00 50.0
06/07/2019 05:00 3.28 152.1 413.95 0.00 51.1
06/07/2019 04:00 3.28 152.1 413.94 0.00 52.5
06/07/2019 03:00 3.28 152.1 413.94 0.00 53.5
06/07/2019 02:00 3.27 149.2 413.93 0.00 55.3
06/07/2019 01:00 3.27 149.2 413.93 0.00 57.1
06/07/2019 00:00 3.26 146.3 413.91 0.00 58.1
06/06/2019 23:00 3.25 143.5 413.90 0.00 61.2
06/06/2019 22:00 3.24 140.7 413.89 0.00 63.2
06/06/2019 21:00 3.23 138.0 413.88 0.00 66.9
06/06/2019 20:00 3.22 135.3 413.88 0.00 69.2
06/06/2019 19:00 3.22 135.3 413.87 0.00 72.9
06/06/2019 18:00 3.22 135.3 413.88 0.00 74.6
06/06/2019 17:00 3.22 135.3 413.85 0.00 73.2
06/06/2019 16:00 3.22 135.3 413.85 0.00 71.3
06/06/2019 15:00 3.21 132.6 413.84 0.00 71.0
06/06/2019 14:00 3.21 132.6 413.83 0.00 70.9
06/06/2019 13:00 3.20 130.0 413.82 0.00 68.5
06/06/2019 12:00 3.20 130.0 413.81 0.00 66.2
06/06/2019 11:00 3.20 130.0 413.81 0.00 63.7
06/06/2019 10:00 3.20 130.0 413.81 0.00 61.2
06/06/2019 09:00 3.19 127.4 413.80 0.00 58.7
06/06/2019 08:00 3.19 127.4 413.79 0.00 57.8
06/06/2019 07:00 3.19 127.4 413.78 0.00 57.8
06/06/2019 06:00 3.18 124.9 413.77 0.00 57.1
06/06/2019 05:00 3.18 124.9 413.76 0.00 56.7
06/06/2019 04:00 3.17 122.4 413.74 0.00 58.1
06/06/2019 03:00 3.17 122.4 413.74 0.00 57.9
06/06/2019 02:00 3.16 120.0 413.73 0.00 57.6
06/06/2019 01:00 3.16 120.0 413.71 0.00 57.5
06/06/2019 00:00 3.16 120.0 413.71 0.00 57.6
06/05/2019 23:00 3.15 117.6 413.69 0.00 60.4
06/05/2019 22:00 3.15 117.6 413.70 0.00 60.8
06/05/2019 21:00 3.15 117.6 413.69 0.00 61.0
06/05/2019 20:00 3.15 117.6 413.69 0.00 61.2
06/05/2019 19:00 3.15 117.6 413.68 0.00 62.6
06/05/2019 18:00 3.14 115.2 413.67 0.00 65.7
06/05/2019 17:00 3.14 115.2 413.69 0.00 72.5
06/05/2019 16:00 3.15 117.6 413.68 0.00 72.7
06/05/2019 15:00 3.14 115.2 413.67 0.00 71.4
06/05/2019 14:00 3.15 117.6 413.68 0.00 69.6
06/05/2019 13:00 3.14 115.2 413.67 0.00 66.0
06/05/2019 12:00 3.15 117.6 413.67 0.00 62.6
06/05/2019 11:00 3.14 115.2 413.66 0.00 56.3
06/05/2019 10:00 3.14 115.2 413.67 0.00 54.8
06/05/2019 09:00 3.14 115.2 413.66 0.00 52.1
06/05/2019 08:00 3.13 112.8 413.65 0.00 51.4
06/05/2019 07:00 3.13 112.8 413.66 0.00 50.6
06/05/2019 06:00 3.14 115.2 413.66 0.00 50.3
06/05/2019 05:00 3.13 112.8 413.64 0.00 50.5
06/05/2019 04:00 3.13 112.8 413.64 0.00 50.0
06/05/2019 03:00 3.13 112.8 413.63 0.00 50.8
06/05/2019 02:00 3.12 110.5 413.62 0.00 53.7
06/05/2019 01:00 3.12 110.5 413.62 0.00 55.5
06/05/2019 00:00 3.12 110.5 413.62 0.00 56.5
06/04/2019 23:00 3.12 110.5 413.62 0.00 58.0
06/04/2019 22:00 3.12 110.5 413.63 0.00 59.5
06/04/2019 21:00 3.12 110.5 413.62 0.00 60.8
06/04/2019 20:00 3.12 110.5 413.60 0.00 62.1
06/04/2019 19:00 3.12 110.5 413.60 0.00 63.4
06/04/2019 18:00 3.11 108.2 413.59 0.00 63.9
06/04/2019 17:00 3.11 108.2 413.62 0.00 64.7
06/04/2019 16:00 3.11 108.2 413.63 0.00 63.4
06/04/2019 15:00 3.11 108.2 413.59 0.00 61.7
06/04/2019 14:00 3.13 112.8 413.62 0.00 61.6
06/04/2019 13:00 3.11 108.2 413.57 0.00 60.8
06/04/2019 12:00 -- -- -- -- --
06/04/2019 11:00 -- -- -- -- --
06/04/2019 10:00 -- -- -- -- --
06/04/2019 09:00 -- -- -- -- --
06/04/2019 08:00 -- -- -- -- --
06/04/2019 07:00 -- -- -- -- --
06/04/2019 06:00 -- -- -- -- --
06/04/2019 05:00 -- -- -- -- --
06/04/2019 04:00 -- -- -- -- --
06/04/2019 03:00 -- -- -- -- --
06/04/2019 02:00 -- -- -- -- --